createdAt,value
2023-03-28T00:01:12.755Z,90.22
2023-03-28T00:03:42.756Z,89.66
2023-03-28T00:06:20.837Z,89.10
2023-03-28T00:08:51.197Z,89.62
2023-03-28T00:11:22.320Z,88.68
2023-03-28T00:13:57.721Z,88.75
2023-03-28T00:16:26.893Z,89.23
2023-03-28T00:18:55.141Z,89.30
2023-03-28T00:21:29.327Z,88.93
2023-03-28T00:24:01.855Z,88.73
2023-03-28T00:26:32.627Z,88.10
2023-03-28T00:29:02.031Z,88.98
2023-03-28T00:31:32.188Z,88.61
2023-03-28T00:34:00.442Z,89.05
2023-03-28T00:36:32.745Z,88.23
2023-03-28T00:39:02.325Z,88.80
2023-03-28T00:41:32.308Z,88.67
2023-03-28T00:44:01.323Z,88.40
2023-03-28T00:46:34.804Z,89.00
2023-03-28T00:49:10.873Z,89.88
2023-03-28T00:51:45.508Z,90.26
2023-03-28T00:54:19.885Z,90.94
2023-03-28T00:56:52.970Z,90.95
2023-03-28T00:59:24.460Z,91.14
2023-03-28T01:01:52.815Z,90.97
2023-03-28T01:04:24.435Z,91.52
2023-03-28T01:06:58.876Z,90.10
2023-03-28T01:09:28.221Z,90.34
2023-03-28T01:11:59.087Z,90.09
2023-03-28T01:14:30.085Z,91.63
2023-03-28T01:17:00.325Z,91.41
2023-03-28T01:19:47.968Z,90.64
2023-03-28T01:23:14.250Z,90.88
2023-03-28T01:26:24.105Z,92.12
2023-03-28T01:29:45.258Z,91.08
2023-03-28T01:32:52.300Z,90.96
2023-03-28T01:36:10.303Z,90.71
2023-03-28T01:38:48.932Z,91.63
2023-03-28T01:41:27.446Z,91.45
2023-03-28T01:44:07.578Z,91.42
2023-03-28T01:46:40.585Z,91.53
2023-03-28T01:49:12.214Z,91.77
2023-03-28T01:51:52.390Z,91.85
2023-03-28T01:54:31.474Z,91.38
2023-03-28T01:57:14.618Z,90.37
2023-03-28T01:59:46.524Z,91.78
2023-03-28T02:02:34.275Z,92.17
2023-03-28T02:05:24.824Z,92.59
2023-03-28T02:07:55.790Z,92.39
2023-03-28T02:10:41.438Z,91.40
2023-03-28T02:13:35.258Z,91.73
2023-03-28T02:16:42.927Z,92.30
2023-03-28T02:19:25.094Z,92.36
2023-03-28T02:22:20.722Z,91.54
2023-03-28T02:25:15.659Z,91.42
2023-03-28T02:28:02.547Z,91.86
2023-03-28T02:30:53.370Z,91.07
2023-03-28T02:33:42.354Z,91.58
2023-03-28T02:36:25.843Z,92.25
2023-03-28T02:39:22.975Z,90.94
2023-03-28T02:42:15.701Z,91.19
2023-03-28T02:45:11.369Z,91.21
2023-03-28T02:47:45.878Z,91.82
2023-03-28T02:50:25.560Z,91.21
2023-03-28T02:53:03.047Z,90.65
2023-03-28T02:55:39.293Z,92.30
2023-03-28T02:58:29.585Z,91.44
2023-03-28T03:00:59.260Z,91.41
2023-03-28T03:03:27.813Z,91.15
2023-03-28T03:05:58.291Z,92.40
2023-03-28T03:08:27.842Z,92.52
2023-03-28T03:10:57.172Z,91.37
2023-03-28T03:13:26.004Z,91.81
2023-03-28T03:15:54.575Z,91.15
2023-03-28T03:18:27.532Z,91.22
2023-03-28T03:20:56.180Z,91.73
2023-03-28T03:23:24.349Z,91.13
2023-03-28T03:25:56.026Z,91.66
2023-03-28T03:28:29.697Z,91.75
2023-03-28T03:30:58.178Z,91.02
2023-03-28T03:33:27.730Z,91.89
2023-03-28T03:36:01.887Z,92.91
2023-03-28T03:38:30.287Z,92.83
2023-03-28T03:40:58.854Z,91.70
2023-03-28T03:43:28.391Z,92.92
2023-03-28T03:45:57.709Z,92.07
2023-03-28T03:48:29.511Z,92.46
2023-03-28T03:51:00.494Z,91.44
2023-03-28T03:53:29.588Z,91.03
2023-03-28T03:56:06.939Z,90.98
2023-03-28T03:58:51.930Z,90.39
2023-03-28T04:01:21.145Z,90.88
2023-03-28T04:03:55.354Z,90.27
2023-03-28T04:06:30.425Z,90.86
2023-03-28T04:08:58.987Z,90.61
2023-03-28T04:11:47.197Z,89.90
2023-03-28T04:14:17.273Z,89.95
2023-03-28T04:16:46.530Z,89.80
2023-03-28T04:19:17.165Z,89.68
2023-03-28T04:21:48.155Z,89.50
2023-03-28T04:24:17.545Z,90.16
2023-03-28T04:26:50.163Z,90.38
2023-03-28T04:29:25.121Z,89.25
2023-03-28T04:32:12.873Z,89.95
2023-03-28T04:35:07.879Z,88.33
2023-03-28T04:37:37.844Z,89.66
2023-03-28T04:40:11.244Z,89.36
2023-03-28T04:42:51.876Z,88.92
2023-03-28T04:45:26.811Z,89.39
2023-03-28T04:47:57.063Z,88.30
2023-03-28T04:50:26.685Z,89.85
2023-03-28T04:52:54.964Z,87.90
2023-03-28T04:55:25.619Z,88.45
2023-03-28T04:57:53.925Z,87.29
2023-03-28T05:00:24.171Z,86.89
2023-03-28T05:03:07.132Z,87.36
2023-03-28T05:05:43.565Z,89.29
2023-03-28T05:08:17.195Z,88.47
2023-03-28T05:10:47.300Z,87.66
2023-03-28T05:13:16.855Z,85.08
2023-03-28T05:15:52.076Z,84.73
2023-03-28T05:18:36.143Z,84.05
2023-03-28T05:21:07.247Z,85.00
2023-03-28T05:23:35.698Z,84.46
2023-03-28T05:26:09.085Z,85.01
2023-03-28T05:28:39.948Z,86.07
2023-03-28T05:31:08.854Z,85.74
2023-03-28T05:33:37.384Z,87.53
2023-03-28T05:36:09.358Z,88.73
2023-03-28T05:38:38.033Z,88.32
2023-03-28T05:41:12.885Z,90.02
2023-03-28T05:43:41.171Z,89.64
2023-03-28T05:46:09.602Z,88.69
2023-03-28T05:48:42.900Z,89.42
2023-03-28T05:51:20.088Z,89.58
2023-03-28T05:53:48.390Z,89.69
2023-03-28T05:56:16.636Z,89.39
2023-03-28T05:58:44.840Z,90.93
2023-03-28T06:01:18.002Z,89.91
2023-03-28T06:04:19.157Z,91.23
2023-03-28T06:06:53.504Z,91.97
2023-03-28T06:09:27.086Z,90.75
2023-03-28T06:12:00.497Z,91.04
2023-03-28T06:14:29.223Z,90.95
2023-03-28T06:16:59.808Z,91.09
2023-03-28T06:19:35.078Z,89.73
2023-03-28T06:22:04.840Z,90.15
2023-03-28T06:24:33.245Z,90.45
2023-03-28T06:27:01.453Z,90.40
2023-03-28T06:29:29.959Z,90.80
2023-03-28T06:32:04.189Z,90.75
2023-03-28T06:34:32.805Z,90.68
2023-03-28T06:37:04.504Z,89.99
2023-03-28T06:40:01.880Z,90.83
2023-03-28T06:42:31.558Z,89.80
2023-03-28T06:45:14.769Z,90.63
2023-03-28T06:48:05.368Z,89.27
2023-03-28T06:50:56.959Z,88.87
2023-03-28T06:53:28.260Z,88.58
2023-03-28T06:55:56.734Z,88.60
2023-03-28T06:58:26.376Z,88.10
2023-03-28T07:01:01.936Z,87.40
2023-03-28T07:03:50.697Z,86.79
2023-03-28T07:06:22.708Z,87.76
2023-03-28T07:08:52.365Z,86.36
2023-03-28T07:11:25.616Z,85.63
2023-03-28T07:13:53.843Z,86.45
2023-03-28T07:16:22.454Z,86.25
2023-03-28T07:18:51.213Z,85.57
2023-03-28T07:21:28.327Z,83.19
2023-03-28T07:24:00.988Z,83.18
2023-03-28T07:26:36.565Z,82.63
2023-03-28T07:29:04.805Z,83.16
2023-03-28T07:31:33.754Z,82.96
2023-03-28T07:34:02.044Z,83.49
2023-03-28T07:36:30.961Z,83.37
2023-03-28T07:39:10.194Z,82.29
2023-03-28T07:41:39.335Z,81.32
2023-03-28T07:44:07.824Z,81.47
2023-03-28T07:46:37.563Z,80.87
2023-03-28T07:49:06.624Z,81.08
2023-03-28T07:51:37.369Z,80.23
2023-03-28T07:54:05.947Z,78.55
2023-03-28T07:56:35.588Z,78.04
2023-03-28T07:59:30.284Z,78.75
2023-03-28T08:01:58.784Z,77.72
2023-03-28T08:04:27.814Z,77.55
2023-03-28T08:07:07.810Z,76.69
2023-03-28T08:09:37.181Z,76.03
2023-03-28T08:12:14.691Z,77.17
2023-03-28T08:14:44.041Z,72.54
2023-03-28T08:17:12.266Z,73.54
2023-03-28T08:19:40.561Z,74.08
2023-03-28T08:22:16.526Z,72.44
2023-03-28T08:24:53.935Z,74.69
2023-03-28T08:27:25.735Z,70.86
2023-03-28T08:29:59.372Z,71.20
2023-03-28T08:32:28.714Z,69.65
2023-03-28T08:35:02.737Z,71.39
2023-03-28T08:37:32.570Z,69.21
2023-03-28T08:40:04.126Z,68.13
2023-03-28T08:43:11.973Z,67.97
2023-03-28T08:45:51.848Z,68.53
2023-03-28T08:48:25.561Z,67.28
2023-03-28T08:51:05.108Z,68.39
2023-03-28T08:53:38.886Z,67.69
2023-03-28T08:56:09.510Z,67.03
2023-03-28T08:58:51.329Z,68.13
2023-03-28T09:01:22.151Z,67.01
2023-03-28T09:03:51.220Z,65.95
2023-03-28T09:06:32.104Z,63.46
2023-03-28T09:09:21.548Z,63.00
2023-03-28T09:12:19.734Z,62.21
2023-03-28T09:15:20.536Z,61.16
2023-03-28T09:18:07.536Z,62.63
2023-03-28T09:20:44.964Z,62.85
2023-03-28T09:23:47.766Z,58.22
2023-03-28T09:26:37.310Z,61.11
2023-03-28T09:29:15.419Z,59.79
2023-03-28T09:31:48.740Z,64.06
2023-03-28T09:34:23.450Z,62.27
2023-03-28T09:36:58.152Z,58.28
2023-03-28T09:39:36.813Z,56.61
2023-03-28T09:42:12.432Z,56.65
2023-03-28T09:44:55.138Z,56.36
2023-03-28T09:47:48.826Z,57.54
2023-03-28T09:50:25.183Z,54.44
2023-03-28T09:52:58.872Z,54.99
2023-03-28T09:55:30.462Z,54.54
2023-03-28T09:58:06.827Z,56.93
2023-03-28T10:00:53.804Z,56.31
2023-03-28T10:03:57.678Z,57.55
2023-03-28T10:06:48.078Z,54.66
2023-03-28T10:09:22.746Z,55.24
2023-03-28T10:12:04.576Z,54.46
2023-03-28T10:14:38.121Z,55.25
2023-03-28T10:17:17.702Z,55.62
2023-03-28T10:19:51.382Z,55.40
2023-03-28T10:22:27.042Z,55.53
2023-03-28T10:24:57.345Z,55.27
2023-03-28T10:27:29.456Z,54.32
2023-03-28T10:29:59.868Z,52.11
2023-03-28T10:32:33.191Z,53.00
2023-03-28T10:35:27.912Z,53.88
2023-03-28T10:38:18.257Z,54.24
2023-03-28T10:41:25.376Z,54.00
2023-03-28T10:44:19.975Z,53.23
2023-03-28T10:46:56.694Z,52.22
2023-03-28T10:49:42.262Z,52.16
2023-03-28T10:52:24.236Z,52.17
2023-03-28T10:55:08.033Z,52.63
2023-03-28T10:58:10.447Z,51.70
2023-03-28T11:00:53.141Z,51.38
2023-03-28T11:03:43.255Z,51.10
2023-03-28T11:06:18.626Z,49.65
2023-03-28T11:09:04.952Z,50.83
2023-03-28T11:12:22.995Z,51.01
2023-03-28T11:15:10.774Z,51.63
2023-03-28T11:17:59.170Z,53.11
2023-03-28T11:20:41.950Z,52.47
2023-03-28T11:23:25.811Z,50.18
2023-03-28T11:26:18.718Z,49.54
2023-03-28T11:29:19.706Z,49.34
2023-03-28T11:31:56.931Z,50.22
2023-03-28T11:34:30.458Z,50.40
2023-03-28T11:37:03.664Z,51.53
2023-03-28T11:39:40.927Z,50.13
2023-03-28T11:42:16.507Z,50.03
2023-03-28T11:44:51.240Z,48.64
2023-03-28T11:47:23.734Z,48.13
2023-03-28T11:50:04.056Z,48.30
2023-03-28T11:52:55.772Z,47.13
2023-03-28T11:55:32.187Z,47.69
2023-03-28T11:58:12.123Z,47.04
2023-03-28T12:00:46.358Z,46.69
2023-03-28T12:03:25.493Z,46.42
2023-03-28T12:06:27.434Z,46.23
2023-03-28T12:09:01.957Z,46.26
2023-03-28T12:11:42.154Z,48.01
2023-03-28T12:14:30.995Z,46.06
2023-03-28T12:17:16.859Z,45.70
2023-03-28T12:19:48.459Z,45.33
2023-03-28T12:22:26.826Z,46.98
2023-03-28T12:25:03.819Z,47.19
2023-03-28T12:27:57.199Z,47.76
2023-03-28T12:30:37.641Z,48.21
2023-03-28T12:33:18.405Z,48.86
2023-03-28T12:36:04.366Z,47.31
2023-03-28T12:38:40.447Z,47.51
2023-03-28T12:41:26.091Z,48.10
2023-03-28T12:43:59.686Z,45.88
2023-03-28T12:46:45.924Z,47.36
2023-03-28T12:49:24.939Z,46.73
2023-03-28T12:51:56.270Z,46.03
2023-03-28T12:54:28.716Z,46.05
2023-03-28T12:57:06.561Z,47.00
2023-03-28T13:00:06.307Z,47.03
2023-03-28T13:03:16.314Z,45.62
2023-03-28T13:05:54.926Z,47.35
2023-03-28T13:08:31.770Z,45.06
2023-03-28T13:11:17.685Z,45.94
2023-03-28T13:13:55.554Z,46.82
2023-03-28T13:16:27.308Z,46.67
2023-03-28T13:19:10.714Z,46.56
2023-03-28T13:21:46.097Z,46.51
2023-03-28T13:24:31.950Z,46.23
2023-03-28T13:27:02.708Z,46.27
2023-03-28T13:29:48.241Z,46.49
2023-03-28T13:32:19.764Z,46.75
2023-03-28T13:34:50.871Z,46.62
2023-03-28T13:37:23.377Z,44.86
2023-03-28T13:39:53.725Z,44.40
2023-03-28T13:42:31.262Z,45.85
2023-03-28T13:45:04.895Z,45.69
2023-03-28T13:47:38.333Z,45.56
2023-03-28T13:50:20.925Z,45.35
2023-03-28T13:52:49.399Z,44.99
2023-03-28T13:55:26.067Z,44.18
2023-03-28T13:57:54.692Z,43.77
2023-03-28T14:00:26.689Z,44.39
2023-03-28T14:03:02.389Z,45.00
2023-03-28T14:05:35.911Z,44.42
2023-03-28T14:08:25.236Z,43.61
2023-03-28T14:10:55.471Z,43.50
2023-03-28T14:13:28.040Z,42.28
2023-03-28T14:15:56.867Z,44.13
2023-03-28T14:18:32.892Z,44.37
2023-03-28T14:21:03.477Z,41.90
2023-03-28T14:23:35.560Z,43.44
2023-03-28T14:26:11.219Z,42.47
2023-03-28T14:28:42.133Z,42.71
2023-03-28T14:31:14.909Z,42.88
2023-03-28T14:33:47.417Z,45.27
2023-03-28T14:36:18.815Z,42.27
2023-03-28T14:38:47.036Z,42.86
2023-03-28T14:41:19.257Z,41.96
2023-03-28T14:43:52.953Z,41.25
2023-03-28T14:46:24.997Z,41.90
2023-03-28T14:48:54.523Z,42.21
2023-03-28T14:51:24.604Z,43.10
2023-03-28T14:53:53.356Z,43.88
2023-03-28T14:56:26.282Z,42.29
2023-03-28T14:58:59.939Z,42.53
2023-03-28T15:01:30.568Z,42.68
2023-03-28T15:04:05.144Z,42.40
2023-03-28T15:06:36.516Z,42.36
2023-03-28T15:09:28.062Z,42.54
2023-03-28T15:11:58.036Z,42.97
2023-03-28T15:14:33.244Z,42.63
2023-03-28T15:17:01.977Z,43.25
2023-03-28T15:19:37.052Z,43.59
2023-03-28T15:22:11.225Z,42.25
2023-03-28T15:24:39.929Z,42.48
2023-03-28T15:27:09.797Z,42.12
2023-03-28T15:29:39.752Z,41.05
2023-03-28T15:32:16.416Z,40.55
2023-03-28T15:34:49.740Z,41.97
2023-03-28T15:37:23.844Z,42.00
2023-03-28T15:39:53.046Z,41.42
2023-03-28T15:42:37.108Z,40.23
2023-03-28T15:45:45.695Z,40.61
2023-03-28T15:48:20.115Z,41.55
2023-03-28T15:50:54.893Z,41.02
2023-03-28T15:53:28.100Z,41.75
2023-03-28T15:56:00.668Z,41.80
2023-03-28T15:58:28.983Z,40.26
2023-03-28T16:00:57.235Z,40.14
2023-03-28T16:03:34.455Z,39.95
2023-03-28T16:06:31.663Z,39.33
2023-03-28T16:09:19.066Z,40.74
2023-03-28T16:11:50.741Z,39.80
2023-03-28T16:14:20.813Z,40.05
2023-03-28T16:17:14.881Z,39.20
2023-03-28T16:19:50.976Z,39.51
2023-03-28T16:22:21.004Z,37.77
2023-03-28T16:24:51.329Z,38.40
2023-03-28T16:27:20.337Z,40.38
2023-03-28T16:29:49.251Z,40.68
2023-03-28T16:32:17.980Z,40.32
2023-03-28T16:34:46.161Z,40.70
2023-03-28T16:37:14.327Z,40.53
2023-03-28T16:39:42.527Z,42.28
2023-03-28T16:42:12.108Z,42.58
2023-03-28T16:44:40.393Z,42.32
2023-03-28T16:47:08.610Z,41.39
2023-03-28T16:49:36.913Z,41.39
2023-03-28T16:52:05.224Z,43.48
2023-03-28T16:54:33.416Z,42.57
2023-03-28T16:57:01.706Z,43.18
2023-03-28T16:59:31.329Z,43.02
2023-03-28T17:01:59.724Z,42.27
2023-03-28T17:04:30.098Z,43.72
2023-03-28T17:06:58.475Z,43.04
2023-03-28T17:09:27.301Z,43.90
2023-03-28T17:11:55.586Z,44.49
2023-03-28T17:14:23.845Z,45.39
2023-03-28T17:16:53.438Z,45.75
2023-03-28T17:19:24.064Z,46.20
2023-03-28T17:21:53.541Z,47.20
2023-03-28T17:24:22.124Z,47.42
2023-03-28T17:26:50.807Z,47.35
2023-03-28T17:29:19.091Z,48.13
2023-03-28T17:31:47.572Z,49.43
2023-03-28T17:34:17.178Z,49.54
2023-03-28T17:36:45.568Z,51.32
2023-03-28T17:39:13.898Z,51.55
2023-03-28T17:41:42.535Z,51.29
2023-03-28T17:44:11.153Z,51.30
2023-03-28T17:46:39.552Z,52.67
2023-03-28T17:49:08.096Z,54.27
2023-03-28T17:51:38.234Z,55.90
2023-03-28T17:54:11.797Z,56.60
2023-03-28T17:56:40.544Z,57.95
2023-03-28T17:59:09.125Z,58.70
2023-03-28T18:01:43.736Z,58.12
2023-03-28T18:04:12.454Z,58.88
2023-03-28T18:07:29.857Z,59.57
2023-03-28T18:10:01.506Z,59.61
2023-03-28T18:12:32.390Z,59.10
2023-03-28T18:15:01.492Z,58.91
2023-03-28T18:17:30.172Z,59.97
2023-03-28T18:19:58.996Z,60.16
2023-03-28T18:22:28.144Z,61.10
2023-03-28T18:24:57.693Z,60.80
2023-03-28T18:27:26.011Z,61.36
2023-03-28T18:29:54.758Z,60.52
2023-03-28T18:32:24.091Z,60.74
2023-03-28T18:34:52.358Z,60.80
2023-03-28T18:37:20.643Z,61.23
2023-03-28T18:39:48.833Z,62.18
2023-03-28T18:42:18.599Z,61.99
2023-03-28T18:44:47.456Z,62.30
2023-03-28T18:47:15.933Z,62.68
2023-03-28T18:49:44.201Z,63.12
2023-03-28T18:52:12.475Z,62.96
2023-03-28T18:54:45.733Z,63.39
2023-03-28T18:57:14.110Z,61.89
2023-03-28T18:59:43.751Z,61.46
2023-03-28T19:02:14.000Z,62.53
2023-03-28T19:04:42.498Z,60.78
2023-03-28T19:07:10.750Z,59.69
2023-03-28T19:09:39.031Z,60.61
2023-03-28T19:12:08.970Z,59.83
2023-03-28T19:14:37.507Z,58.76
2023-03-28T19:17:07.449Z,58.58
2023-03-28T19:19:37.461Z,58.89
2023-03-28T19:22:06.500Z,58.88
2023-03-28T19:24:35.205Z,58.94
2023-03-28T19:27:05.192Z,57.39
2023-03-28T19:29:33.732Z,57.34
2023-03-28T19:32:02.355Z,57.74
2023-03-28T19:34:32.285Z,57.47
2023-03-28T19:37:00.487Z,56.94
2023-03-28T19:39:28.687Z,57.08
2023-03-28T19:41:56.943Z,57.57
2023-03-28T19:44:25.482Z,58.11
2023-03-28T19:46:53.738Z,58.79
2023-03-28T19:49:21.936Z,58.61
2023-03-28T19:51:53.469Z,58.86
2023-03-28T19:54:22.024Z,59.26
2023-03-28T19:56:50.316Z,58.95
2023-03-28T19:59:18.532Z,57.97
2023-03-28T20:01:46.845Z,58.98
2023-03-28T20:04:27.551Z,57.94
2023-03-28T20:06:57.926Z,58.45
2023-03-28T20:09:26.290Z,59.36
2023-03-28T20:11:54.513Z,59.33
2023-03-28T20:14:22.704Z,59.03
2023-03-28T20:16:51.050Z,59.37
2023-03-28T20:19:19.980Z,59.36
2023-03-28T20:21:49.147Z,59.36
2023-03-28T20:24:19.085Z,59.99
2023-03-28T20:26:47.691Z,59.19
2023-03-28T20:29:15.870Z,59.15
2023-03-28T20:31:44.159Z,59.26
2023-03-28T20:34:12.414Z,58.75
2023-03-28T20:36:41.466Z,58.34
2023-03-28T20:39:09.939Z,59.04
2023-03-28T20:41:40.029Z,59.31
2023-03-28T20:44:08.776Z,58.55
2023-03-28T20:46:37.891Z,59.38
2023-03-28T20:49:07.814Z,58.56
2023-03-28T20:51:39.072Z,58.45
2023-03-28T20:54:07.777Z,58.38
2023-03-28T20:56:36.112Z,58.88
2023-03-28T20:59:06.289Z,58.39
2023-03-28T21:01:39.411Z,58.24
2023-03-28T21:04:08.607Z,58.00
2023-03-28T21:06:38.455Z,58.34
2023-03-28T21:09:09.877Z,58.32
2023-03-28T21:11:40.366Z,57.99
2023-03-28T21:14:13.141Z,58.80
2023-03-28T21:16:42.055Z,59.58
2023-03-28T21:19:10.570Z,59.19
2023-03-28T21:21:38.771Z,58.37
2023-03-28T21:24:08.301Z,59.43
2023-03-28T21:26:36.809Z,59.41
2023-03-28T21:29:05.088Z,58.77
2023-03-28T21:31:34.715Z,59.70
2023-03-28T21:34:02.958Z,59.58
2023-03-28T21:36:31.211Z,59.16
2023-03-28T21:38:59.408Z,59.38
2023-03-28T21:41:28.288Z,60.13
2023-03-28T21:43:56.886Z,59.62
2023-03-28T21:46:25.578Z,60.27
2023-03-28T21:48:55.372Z,61.89
2023-03-28T21:51:23.904Z,62.42
2023-03-28T21:53:52.170Z,62.69
2023-03-28T21:56:20.372Z,61.69
2023-03-28T21:58:48.587Z,63.04
2023-03-28T22:04:15.297Z,59.58
2023-03-28T22:06:44.398Z,60.76
2023-03-28T22:09:12.600Z,60.61
2023-03-28T22:11:42.157Z,60.98
2023-03-28T22:14:10.348Z,60.52
2023-03-28T22:16:40.091Z,60.33
2023-03-28T22:19:11.288Z,61.01
2023-03-28T22:21:41.018Z,60.60
2023-03-28T22:24:12.998Z,60.47
2023-03-28T22:26:42.505Z,60.59
2023-03-28T22:29:10.716Z,61.85
2023-03-28T22:31:39.087Z,60.81
2023-03-28T22:34:07.345Z,61.75
2023-03-28T22:36:35.968Z,61.91
2023-03-28T22:39:10.393Z,62.74
2023-03-28T22:41:44.862Z,63.52
2023-03-28T22:44:13.281Z,65.34
2023-03-28T22:46:42.447Z,65.15
2023-03-28T22:49:12.954Z,64.84
2023-03-28T22:51:46.141Z,65.35
2023-03-28T22:54:21.004Z,65.76
2023-03-28T22:56:49.278Z,67.68
2023-03-28T22:59:17.502Z,66.68
2023-03-28T23:01:46.486Z,66.71
2023-03-28T23:04:14.863Z,68.37
2023-03-28T23:06:44.519Z,67.88
2023-03-28T23:09:15.760Z,68.89
2023-03-28T23:11:44.384Z,69.31
2023-03-28T23:14:12.915Z,69.70
2023-03-28T23:16:41.167Z,70.92
2023-03-28T23:19:10.015Z,70.78
2023-03-28T23:21:38.350Z,71.31
2023-03-28T23:24:08.501Z,71.28
2023-03-28T23:26:38.132Z,70.85
2023-03-28T23:29:11.279Z,72.22
2023-03-28T23:31:39.484Z,72.28
2023-03-28T23:34:07.913Z,74.22
2023-03-28T23:36:36.187Z,74.07
2023-03-28T23:39:05.250Z,73.64
2023-03-28T23:41:33.445Z,76.49
2023-03-28T23:44:02.961Z,76.03
2023-03-28T23:46:31.123Z,77.56
2023-03-28T23:48:59.373Z,82.01
2023-03-28T23:51:29.164Z,80.93
2023-03-28T23:53:57.378Z,82.75
2023-03-28T23:56:25.736Z,83.14
2023-03-28T23:58:53.894Z,83.55
